Time;durP1;ratioP1;P1;durP2;ratioP2;P2;SDS_P1;SDS_P2;PMS_P1;PMS_P2;Temp;Humidity;BMP_temperature;BMP_pressure;BME280_temperature;BME280_humidity;BME280_pressure;Samples;Min_cycle;Max_cycle;Signal;HPM_P1;HPM_P2
2021/04/21 00:01:07;;;;;;;36.50;20.35;;;;;;;6.87;71.47;98466.19;2142610;83;21304;-82
2021/04/21 00:04:09;;;;;;;38.60;22.90;;;;;;;6.81;71.70;98462.44;2142930;83;21198;-83
2021/04/21 00:07:11;;;;;;;31.82;18.20;;;;;;;6.82;71.97;98470.56;2143017;83;21185;-83
2021/04/21 00:10:13;;;;;;;31.00;18.75;;;;;;;6.82;71.97;98461.94;2143221;83;21762;-83
2021/04/21 00:13:15;;;;;;;31.15;17.67;;;;;;;6.80;72.26;98458.70;2142844;83;21157;-83
2021/04/21 00:16:17;;;;;;;25.05;16.93;;;;;;;6.82;72.29;98461.94;2142754;83;21161;-83
2021/04/21 00:19:19;;;;;;;28.57;18.48;;;;;;;6.84;72.35;98458.69;2142778;83;21173;-82
2021/04/21 00:22:22;;;;;;;39.10;22.20;;;;;;;6.85;72.48;98457.70;2142737;83;21295;-82
2021/04/21 00:25:24;;;;;;;42.48;22.77;;;;;;;6.84;72.60;98457.38;2142739;83;21161;-82
2021/04/21 00:28:26;;;;;;;33.78;20.57;;;;;;;6.81;72.88;98452.02;2142761;83;21609;-83
2021/04/21 00:31:28;;;;;;;36.65;21.07;;;;;;;6.82;72.83;98452.34;2142444;83;21279;-82
2021/04/21 00:34:30;;;;;;;43.23;22.55;;;;;;;6.84;73.12;98450.88;2142441;83;21315;-84
2021/04/21 00:37:32;;;;;;;49.25;24.60;;;;;;;6.86;73.18;98451.55;2142560;83;21292;-83
2021/04/21 00:40:34;;;;;;;34.33;20.00;;;;;;;6.90;73.16;98446.83;2142630;83;21356;-83
2021/04/21 00:43:36;;;;;;;44.73;23.70;;;;;;;6.92;73.11;98453.97;2142380;83;21295;-83
2021/04/21 00:46:38;;;;;;;44.05;22.77;;;;;;;6.85;73.17;98449.41;2142330;82;21283;-83
2021/04/21 00:49:40;;;;;;;40.20;22.80;;;;;;;6.83;73.36;98442.26;2142649;83;21291;-83
2021/04/21 00:52:42;;;;;;;37.33;22.60;;;;;;;6.79;73.29;98448.77;2142733;83;21283;-84
2021/04/21 00:55:44;;;;;;;35.10;22.00;;;;;;;6.75;73.49;98450.05;2142497;83;21685;-83
2021/04/21 00:58:46;;;;;;;35.78;22.85;;;;;;;6.67;73.63;98441.42;2142263;83;21165;-82
2021/04/21 01:01:48;;;;;;;43.25;26.48;;;;;;;6.58;73.64;98444.99;2142228;83;21149;-83
2021/04/21 01:04:50;;;;;;;50.20;28.92;;;;;;;6.53;73.73;98439.80;2142307;83;21735;-82
2021/04/21 01:07:52;;;;;;;50.23;27.67;;;;;;;6.52;73.79;98437.36;2142211;83;21303;-81
2021/04/21 01:10:54;;;;;;;47.20;26.15;;;;;;;6.52;73.97;98434.76;2142598;83;21137;-82
2021/04/21 01:13:56;;;;;;;44.48;25.80;;;;;;;6.55;74.11;98436.55;2142418;83;21197;-82
2021/04/21 01:16:57;;;;;;;47.45;29.40;;;;;;;6.60;74.16;98429.57;2121773;83;21578;-80
2021/04/21 01:19:59;;;;;;;63.98;33.65;;;;;;;6.66;74.25;98427.61;2142597;83;21326;-79
2021/04/21 01:26:31;;;;;;;65.75;32.50;;;;;;;6.67;74.27;98427.11;2203022;80;21195;-88
2021/04/21 01:29:33;;;;;;;64.85;31.73;;;;;;;6.66;74.44;98426.80;2213591;80;21181;-86
2021/04/21 01:32:35;;;;;;;43.95;27.07;;;;;;;6.62;74.36;98430.22;2213333;80;21134;-87
2021/04/21 01:35:37;;;;;;;38.90;25.05;;;;;;;6.60;74.43;98428.27;2213476;80;21149;-87
2021/04/21 01:38:39;;;;;;;33.38;23.75;;;;;;;6.58;74.92;98432.80;2213696;80;21161;-87
2021/04/21 01:41:40;;;;;;;33.70;23.15;;;;;;;6.54;74.83;98430.20;2213302;80;21142;-86
2021/04/21 01:44:42;;;;;;;32.03;23.62;;;;;;;6.55;74.90;98434.43;2213355;80;21184;-89
2021/04/21 01:47:43;;;;;;;39.63;25.55;;;;;;;6.56;75.26;98437.35;2213137;80;21110;-87
2021/04/21 01:50:46;;;;;;;35.95;27.13;;;;;;;6.58;75.44;98429.38;2213160;80;21150;-88
2021/04/21 01:53:48;;;;;;;44.40;28.65;;;;;;;6.60;75.44;98432.17;2213177;80;21617;-88
2021/04/21 01:56:50;;;;;;;41.35;28.05;;;;;;;6.60;75.63;98426.97;2213635;80;21158;-87
2021/04/21 01:59:52;;;;;;;47.40;30.85;;;;;;;6.62;75.91;98432.82;2213631;80;21609;-88
2021/04/21 02:02:54;;;;;;;42.20;30.17;;;;;;;6.62;75.94;98428.92;2213576;80;21138;-88
2021/04/21 02:05:56;;;;;;;44.98;30.88;;;;;;;6.67;76.02;98434.44;2213427;80;21162;-88
2021/04/21 02:08:58;;;;;;;43.00;30.35;;;;;;;6.72;76.37;98432.66;2213499;80;21166;-87
2021/04/21 02:12:00;;;;;;;45.98;30.43;;;;;;;6.73;76.29;98432.98;2213340;80;21162;-88
2021/04/21 02:15:02;;;;;;;43.65;31.00;;;;;;;6.72;76.37;98433.97;2213272;80;21158;-88
2021/04/21 02:18:04;;;;;;;63.23;44.88;;;;;;;6.73;76.54;98429.08;2213475;80;21126;-88
2021/04/21 02:21:06;;;;;;;61.28;39.58;;;;;;;6.74;76.43;98430.22;2213596;80;21126;-86
2021/04/21 02:24:08;;;;;;;66.02;37.40;;;;;;;6.76;76.56;98425.66;2213095;80;21182;-89
2021/04/21 02:27:10;;;;;;;53.10;34.48;;;;;;;6.73;76.58;98431.69;2213617;80;21142;-89
2021/04/21 02:30:12;;;;;;;47.30;30.70;;;;;;;6.77;76.77;98438.21;2191816;80;21633;-88
2021/04/21 02:33:14;;;;;;;46.55;31.07;;;;;;;6.79;76.77;98429.75;2213872;80;21134;-88
2021/04/21 02:36:16;;;;;;;48.75;33.75;;;;;;;6.81;76.77;98436.41;2192474;80;21170;-88
2021/04/21 02:39:17;;;;;;;46.68;32.30;;;;;;;6.81;76.80;98437.71;2213849;80;21685;-89
2021/04/21 02:42:19;;;;;;;44.03;30.55;;;;;;;6.82;76.89;98438.52;2213711;80;21147;-88
2021/04/21 02:45:21;;;;;;;48.73;33.78;;;;;;;6.80;76.94;98436.09;2213823;80;21257;-88
2021/04/21 02:48:23;;;;;;;45.38;30.77;;;;;;;6.78;77.07;98433.33;2214111;80;21287;-88
2021/04/21 02:51:25;;;;;;;49.48;33.53;;;;;;;6.74;77.04;98430.22;2213900;80;21688;-88
2021/04/21 02:54:27;;;;;;;44.80;32.78;;;;;;;6.66;77.11;98430.20;2213415;80;21162;-86
2021/04/21 02:57:29;;;;;;;52.08;34.92;;;;;;;6.62;77.37;98430.70;2213226;80;21146;-85
2021/04/21 03:00:31;;;;;;;66.40;42.23;;;;;;;6.60;77.36;98430.87;2213659;80;21148;-85
2021/04/21 03:03:33;;;;;;;77.70;47.80;;;;;;;6.59;77.45;98432.34;2213071;80;21238;-86
2021/04/21 03:06:35;;;;;;;75.65;48.33;;;;;;;6.56;77.56;98426.95;2213049;80;21292;-86
2021/04/21 03:09:37;;;;;;;84.92;47.67;;;;;;;6.50;77.51;98417.20;2213558;80;21693;-86
2021/04/21 03:12:38;;;;;;;80.95;42.35;;;;;;;6.47;77.76;98420.92;2213438;80;21743;-86
2021/04/21 03:15:40;;;;;;;74.67;41.53;;;;;;;6.44;77.88;98421.25;2213454;80;21312;-87
2021/04/21 03:18:42;;;;;;;62.98;36.93;;;;;;;6.42;77.81;98423.20;2213384;80;21308;-86
2021/04/21 03:21:44;;;;;;;53.33;35.35;;;;;;;6.46;77.88;98428.40;2213276;80;21311;-86
2021/04/21 03:24:46;;;;;;;51.50;36.65;;;;;;;6.47;77.87;98430.52;2213090;80;21162;-89
2021/04/21 03:27:48;;;;;;;51.25;35.43;;;;;;;6.46;77.88;98426.28;2212974;80;21123;-87
2021/04/21 03:30:49;;;;;;;55.73;36.95;;;;;;;6.53;77.94;98425.98;2213124;80;21147;-88
2021/04/21 03:33:52;;;;;;;61.00;37.38;;;;;;;6.52;77.85;98421.27;2213261;80;21103;-86
2021/04/21 03:36:54;;;;;;;52.83;35.55;;;;;;;6.55;77.83;98420.94;2213311;80;21831;-87
2021/04/21 03:39:55;;;;;;;64.27;38.95;;;;;;;6.62;77.79;98421.60;2213249;80;21102;-87
2021/04/21 03:42:57;;;;;;;66.77;42.15;;;;;;;6.63;77.85;98415.42;2213035;80;21156;-88
2021/04/21 03:45:59;;;;;;;58.02;39.67;;;;;;;6.63;77.71;98421.44;2213248;80;21173;-88
2021/04/21 03:49:01;;;;;;;54.25;34.15;;;;;;;6.61;77.91;98418.67;2213023;80;21154;-87
2021/04/21 03:52:03;;;;;;;67.70;41.15;;;;;;;6.65;77.87;98423.87;2213280;80;21123;-86
2021/04/21 03:55:05;;;;;;;67.85;40.92;;;;;;;6.64;77.92;98428.75;2213318;80;21280;-86
2021/04/21 03:58:07;;;;;;;65.80;38.90;;;;;;;6.66;78.02;98428.91;2212990;80;21146;-87
2021/04/21 04:01:09;;;;;;;65.50;40.20;;;;;;;6.70;78.19;98428.92;2213430;80;21285;-87
2021/04/21 04:04:11;;;;;;;68.30;39.70;;;;;;;6.75;78.18;98431.84;2213165;80;21142;-87
2021/04/21 04:07:14;;;;;;;148.45;69.70;;;;;;;6.82;78.11;98427.62;2213444;80;21282;-88
2021/04/21 04:10:16;;;;;;;339.02;132.72;;;;;;;6.91;78.18;98431.53;2213324;80;21296;-87
2021/04/21 04:13:18;;;;;;;341.00;136.03;;;;;;;6.97;77.98;98429.59;2213213;80;22352;-87
2021/04/21 04:16:20;;;;;;;229.90;93.17;;;;;;;7.15;78.00;98426.32;2213802;80;21791;-88
2021/04/21 04:19:21;;;;;;;136.47;57.43;;;;;;;7.39;77.97;98426.27;2213359;80;21257;-88
2021/04/21 04:22:23;;;;;;;96.10;45.28;;;;;;;7.55;77.58;98428.52;2212994;80;21145;-87
2021/04/21 04:25:24;;;;;;;63.65;37.88;;;;;;;7.60;77.33;98428.34;2213007;80;21629;-89
2021/04/21 04:28:26;;;;;;;75.37;39.60;;;;;;;7.66;77.23;98426.84;2213022;80;21161;-87
2021/04/21 04:31:28;;;;;;;64.22;40.40;;;;;;;7.69;77.29;98433.86;2212932;80;21449;-88
2021/04/21 04:34:30;;;;;;;138.82;64.17;;;;;;;7.73;77.14;98429.60;2213202;80;21695;-87
2021/04/21 04:37:33;;;;;;;277.20;96.17;;;;;;;7.77;76.86;98429.58;2213450;80;21320;-87
2021/04/21 04:40:35;;;;;;;177.78;63.70;;;;;;;7.80;76.96;98431.37;2212556;80;21118;-87
2021/04/21 04:43:36;;;;;;;93.65;43.80;;;;;;;7.82;77.07;98432.02;2212525;80;21138;-86
2021/04/21 04:46:39;;;;;;;68.28;39.70;;;;;;;7.92;77.06;98439.14;2212751;80;21134;-86
2021/04/21 04:49:41;;;;;;;51.83;33.00;;;;;;;7.96;76.99;98440.94;2212805;80;21142;-87
2021/04/21 04:52:43;;;;;;;50.73;34.03;;;;;;;8.05;76.96;98443.02;2213115;80;21146;-86
2021/04/21 04:55:45;;;;;;;47.75;31.87;;;;;;;8.10;76.93;98439.39;2213236;80;21142;-86
2021/04/21 04:58:46;;;;;;;44.55;29.20;;;;;;;8.13;76.91;98441.16;2213276;80;21181;-87
2021/04/21 05:01:49;;;;;;;42.05;26.90;;;;;;;8.21;76.78;98439.82;2212955;80;21142;-88
2021/04/21 05:04:51;;;;;;;39.63;28.23;;;;;;;8.26;76.86;98441.44;2213109;80;21106;-86
2021/04/21 05:07:53;;;;;;;31.65;23.02;;;;;;;8.34;76.76;98444.99;2212842;80;21134;-88
2021/04/21 05:10:55;;;;;;;36.80;25.62;;;;;;;8.45;76.62;98442.02;2213265;80;21102;-86
2021/04/21 05:13:57;;;;;;;69.10;41.00;;;;;;;8.55;76.73;98442.11;2213185;80;21166;-89
2021/04/21 05:17:00;;;;;;;65.47;35.70;;;;;;;8.68;76.54;98437.61;2213608;80;21253;-87
2021/04/21 05:20:01;;;;;;;44.27;25.97;;;;;;;8.82;76.35;98443.39;2213540;80;21284;-87
2021/04/21 05:23:03;;;;;;;38.58;24.45;;;;;;;8.98;76.18;98441.65;2213387;80;21130;-88
2021/04/21 05:26:05;;;;;;;45.43;27.85;;;;;;;9.12;75.81;98446.08;2213683;80;21743;-88
2021/04/21 05:29:07;;;;;;;38.25;26.95;;;;;;;9.28;75.82;98439.91;2213911;80;21727;-89
2021/04/21 05:32:09;;;;;;;35.28;24.47;;;;;;;9.46;75.67;98442.19;2213496;80;21170;-90
2021/04/21 05:35:11;;;;;;;27.13;21.30;;;;;;;9.58;75.30;98440.25;2214401;80;21606;-89
2021/04/21 05:38:13;;;;;;;31.68;22.40;;;;;;;9.74;74.98;98439.77;2213486;80;21162;-86
2021/04/21 05:41:15;;;;;;;29.63;23.35;;;;;;;9.86;74.84;98443.05;2213638;80;21137;-91
2021/04/21 05:51:20;;;;;;;28.27;21.33;;;;;;;10.27;74.17;98450.44;2137796;80;21169;-90
2021/04/21 05:54:23;;;;;;;29.23;22.70;;;;;;;10.46;73.75;98449.03;2213837;80;21577;-87
2021/04/21 05:57:26;;;;;;;30.17;21.42;;;;;;;10.61;73.34;98456.36;2213682;80;21277;-86
2021/04/21 06:00:28;;;;;;;28.67;21.48;;;;;;;10.71;73.34;98454.23;2214129;80;21173;-90
2021/04/21 06:03:30;;;;;;;28.15;20.72;;;;;;;10.80;72.69;98453.63;2214194;80;21323;-92
2021/04/21 06:06:34;;;;;;;30.60;21.25;;;;;;;10.89;72.63;98445.95;2213972;80;21195;-88
2021/04/21 06:09:35;;;;;;;26.15;18.85;;;;;;;11.05;72.53;98450.91;2214360;80;21142;-87
2021/04/21 06:12:37;;;;;;;26.27;20.12;;;;;;;11.18;72.07;98444.17;2214957;80;21158;-90
2021/04/21 06:15:41;;;;;;;23.18;19.25;;;;;;;11.25;71.99;98447.66;2215057;80;21288;-88
2021/04/21 06:18:46;;;;;;;24.92;19.00;;;;;;;11.36;71.96;98450.56;2215106;80;21106;-87
2021/04/21 06:21:47;;;;;;;23.92;19.98;;;;;;;11.56;71.60;98448.08;2214202;80;21277;-88
2021/04/21 06:24:50;;;;;;;21.25;17.92;;;;;;;11.76;71.81;98450.00;2214066;80;21154;-87
2021/04/21 06:27:52;;;;;;;23.98;17.80;;;;;;;11.95;70.70;98450.14;2213942;80;21308;-86
2021/04/21 06:30:54;;;;;;;23.77;17.80;;;;;;;12.15;71.03;98452.84;2213216;80;21601;-85
2021/04/21 06:33:56;;;;;;;21.15;17.57;;;;;;;12.27;70.48;98449.17;2212961;80;21158;-87
2021/04/21 06:36:58;;;;;;;41.30;29.50;;;;;;;12.40;70.08;98448.40;2213098;80;21162;-87
2021/04/21 06:40:00;;;;;;;39.20;25.50;;;;;;;12.48;69.86;98446.41;2212781;80;21162;-88
2021/04/21 06:43:02;;;;;;;32.98;21.80;;;;;;;12.57;70.05;98447.55;2214015;80;21169;-87
2021/04/21 06:46:07;;;;;;;22.58;17.00;;;;;;;12.68;70.14;98450.39;2213012;80;21169;-89
2021/04/21 06:49:08;;;;;;;19.67;16.27;;;;;;;12.79;68.67;98447.17;2212895;80;21173;-86
2021/04/21 06:52:10;;;;;;;17.80;16.00;;;;;;;12.87;68.95;98450.11;2189010;80;21126;-88
2021/04/21 06:55:12;;;;;;;16.67;14.93;;;;;;;12.98;68.55;98452.65;2212531;80;21479;-89
2021/04/21 06:58:22;;;;;;;18.05;15.28;;;;;;;13.09;67.85;98452.07;2213193;80;21288;-87
2021/04/21 07:01:28;;;;;;;17.92;15.25;;;;;;;13.21;67.33;98454.92;2213182;80;22318;-88
2021/04/21 07:04:30;;;;;;;17.42;14.40;;;;;;;13.32;66.12;98451.68;2213333;80;21162;-86
2021/04/21 07:07:33;;;;;;;16.60;13.43;;;;;;;13.55;65.12;98442.06;2213379;80;21589;-88
2021/04/21 07:10:36;;;;;;;16.07;14.40;;;;;;;13.55;65.12;98442.06;2213446;80;21150;-88
2021/04/21 07:13:37;;;;;;;18.45;14.05;;;;;;;13.64;64.64;98453.98;2213478;80;21149;-88
2021/04/21 07:16:40;;;;;;;16.17;13.75;;;;;;;13.86;64.12;98448.77;2213466;80;21683;-87
2021/04/21 07:19:44;;;;;;;15.98;14.00;;;;;;;13.86;64.12;98448.77;2213149;80;21186;-88
2021/04/21 07:22:47;;;;;;;17.27;13.20;;;;;;;14.05;63.91;98444.96;2213237;80;21157;-87
2021/04/21 07:25:49;;;;;;;14.28;12.37;;;;;;;14.18;63.10;98449.68;2213061;80;21106;-88
2021/04/21 07:28:50;;;;;;;16.85;14.13;;;;;;;14.35;62.59;98447.87;2213670;80;21689;-89
2021/04/21 07:31:52;;;;;;;14.83;12.73;;;;;;;14.47;62.82;98451.50;2213481;80;21331;-89
2021/04/21 07:34:55;;;;;;;13.40;11.97;;;;;;;14.63;61.96;98444.43;2213589;80;21150;-90
2021/04/21 07:37:59;;;;;;;13.62;12.03;;;;;;;14.80;62.31;98452.61;2213887;80;21650;-88
2021/04/21 07:41:01;;;;;;;14.47;12.90;;;;;;;14.89;59.99;98455.29;2213488;80;21569;-87
2021/04/21 07:44:03;;;;;;;16.55;14.05;;;;;;;14.87;60.07;98452.58;2214018;80;21253;-88
2021/04/21 07:47:05;;;;;;;16.35;12.45;;;;;;;14.84;59.65;98455.65;2213803;80;21289;-87
2021/04/21 07:50:09;;;;;;;12.90;11.48;;;;;;;14.75;60.17;98445.87;2213834;80;21296;-86
2021/04/21 07:53:11;;;;;;;11.83;10.72;;;;;;;14.82;59.09;98457.19;2213451;80;21238;-87
2021/04/21 07:56:13;;;;;;;11.63;10.13;;;;;;;14.82;59.09;98457.19;2213278;80;21288;-85
2021/04/21 07:59:15;;;;;;;12.37;9.78;;;;;;;14.77;58.50;98454.36;2213391;80;21161;-88
2021/04/21 08:02:19;;;;;;;9.85;9.03;;;;;;;14.83;59.26;98453.53;2213803;80;21755;-91
2021/04/21 08:05:21;;;;;;;12.40;11.10;;;;;;;14.91;58.72;98449.31;2213798;80;21146;-90
2021/04/21 08:08:23;;;;;;;13.70;10.63;;;;;;;15.01;58.75;98448.84;2214324;80;21312;-90
2021/04/21 08:11:25;;;;;;;11.75;10.55;;;;;;;15.13;58.55;98445.80;2191250;80;21554;-92
2021/04/21 08:14:28;;;;;;;10.63;8.60;;;;;;;15.23;57.86;98449.27;2213750;80;21776;-86
2021/04/21 08:17:30;;;;;;;13.25;9.25;;;;;;;15.32;57.12;98447.45;2213896;80;21708;-87
2021/04/21 08:20:33;;;;;;;13.00;10.72;;;;;;;15.36;54.78;98449.98;2213199;80;21169;-88
2021/04/21 08:23:36;;;;;;;11.40;9.50;;;;;;;15.47;55.33;98443.18;2213167;80;21134;-86
2021/04/21 08:26:38;;;;;;;8.20;7.50;;;;;;;15.57;55.66;98444.80;2190797;80;21185;-82
2021/04/21 08:29:40;;;;;;;8.60;7.80;;;;;;;15.73;55.49;98444.79;2213227;80;21787;-84
2021/04/21 08:32:42;;;;;;;11.03;9.93;;;;;;;15.89;53.69;98442.06;2213544;80;21312;-85
2021/04/21 08:35:44;;;;;;;9.85;8.85;;;;;;;16.05;54.33;98438.84;2213359;80;21753;-84
2021/04/21 08:38:46;;;;;;;11.03;9.65;;;;;;;16.26;54.08;98450.77;2213241;80;21174;-85
2021/04/21 08:41:48;;;;;;;11.88;9.65;;;;;;;16.40;52.04;98446.94;2213701;80;21297;-87
2021/04/21 08:44:50;;;;;;;11.20;9.70;;;;;;;16.55;53.16;98449.69;2213208;80;21146;-85
2021/04/21 08:48:02;;;;;;;12.03;10.72;;;;;;;16.59;52.46;98446.91;2213210;80;21162;-85
2021/04/21 08:51:04;;;;;;;11.68;9.25;;;;;;;16.73;52.97;98450.98;2213776;80;21658;-83
2021/04/21 08:54:06;;;;;;;10.45;8.98;;;;;;;16.79;52.32;98454.06;2213504;80;21312;-83
2021/04/21 08:57:07;;;;;;;9.98;8.60;;;;;;;16.78;51.36;98448.48;2213569;80;21299;-85
2021/04/21 09:00:09;;;;;;;12.28;10.08;;;;;;;16.88;51.66;98450.58;2213614;80;21153;-84
2021/04/21 09:03:11;;;;;;;10.23;7.75;;;;;;;17.03;51.13;98446.48;2213557;80;21256;-83
2021/04/21 09:06:15;;;;;;;9.58;8.55;;;;;;;17.19;50.82;98448.98;2213210;80;21170;-85
2021/04/21 09:09:17;;;;;;;10.05;9.08;;;;;;;17.38;51.18;98446.25;2213522;80;21154;-87
2021/04/21 09:12:19;;;;;;;10.40;9.30;;;;;;;17.59;50.46;98448.30;2213341;80;21589;-83
2021/04/21 09:15:21;;;;;;;11.33;9.00;;;;;;;17.69;49.51;98440.59;2213527;80;21565;-88
2021/04/21 09:18:23;;;;;;;10.98;8.70;;;;;;;17.70;48.87;98440.90;2213241;80;21196;-82
2021/04/21 09:21:26;;;;;;;11.20;9.30;;;;;;;17.66;47.73;98431.80;2213020;80;21328;-87
2021/04/21 09:24:28;;;;;;;11.48;9.30;;;;;;;17.62;47.72;98434.08;2212661;80;21308;-87
2021/04/21 09:27:33;;;;;;;12.82;9.20;;;;;;;17.61;48.47;98428.50;2212998;80;21370;-85
2021/04/21 09:30:36;;;;;;;10.88;9.20;;;;;;;17.59;47.67;98421.31;2212851;80;21256;-84
2021/04/21 09:33:38;;;;;;;10.88;8.05;;;;;;;17.64;47.91;98418.77;2212821;80;21170;-87
2021/04/21 09:36:40;;;;;;;8.85;7.95;;;;;;;17.74;48.09;98414.75;2213014;80;21324;-84
2021/04/21 09:39:42;;;;;;;9.48;7.95;;;;;;;17.75;46.43;98416.39;2210880;80;21145;-86
2021/04/21 09:42:43;;;;;;;9.85;8.38;;;;;;;17.60;45.91;98405.72;2208095;80;21557;-85
2021/04/21 09:45:45;;;;;;;10.05;9.05;;;;;;;17.40;45.83;98408.44;2188174;80;21251;-86
2021/04/21 09:48:48;;;;;;;10.00;8.55;;;;;;;17.24;46.99;98413.89;2213040;80;21268;-83
2021/04/21 09:51:50;;;;;;;13.22;9.90;;;;;;;16.96;46.64;98411.91;2213142;80;21308;-80
2021/04/21 09:54:52;;;;;;;8.58;7.33;;;;;;;16.82;46.87;98413.14;2206810;80;21157;-78
2021/04/21 09:57:55;;;;;;;23.92;15.48;;;;;;;16.62;46.09;98416.05;2185909;80;21118;-79
2021/04/21 10:00:57;;;;;;;15.08;9.60;;;;;;;16.67;48.31;98402.97;2210952;80;21133;-80
2021/04/21 10:03:59;;;;;;;9.08;8.20;;;;;;;16.91;48.33;98400.68;2212839;80;21565;-80
2021/04/21 10:07:01;;;;;;;13.40;9.40;;;;;;;17.15;47.81;98397.55;2212984;80;21166;-80
2021/04/21 10:10:03;;;;;;;25.75;14.95;;;;;;;17.48;49.57;98380.31;2182052;80;21304;-83
2021/04/21 10:13:05;;;;;;;11.33;7.28;;;;;;;17.99;50.08;98375.55;2194712;80;21182;-81
2021/04/21 10:16:07;;;;;;;17.87;11.12;;;;;;;18.22;45.47;98376.53;2195685;80;21146;-82
2021/04/21 10:19:09;;;;;;;12.33;7.58;;;;;;;18.31;45.12;98376.43;2191656;80;21260;-81
2021/04/21 10:22:12;;;;;;;11.50;8.60;;;;;;;18.34;44.87;98370.13;2196883;80;21151;-81
2021/04/21 10:25:14;;;;;;;15.32;10.32;;;;;;;18.17;44.66;98376.70;2203665;80;21784;-79
2021/04/21 10:28:16;;;;;;;11.50;9.80;;;;;;;17.89;48.05;98375.35;2150568;82;21143;-80
2021/04/21 10:31:18;;;;;;;12.73;8.90;;;;;;;17.63;45.60;98380.09;2212446;80;21111;-80
2021/04/21 10:34:20;;;;;;;7.90;7.10;;;;;;;17.38;45.23;98382.73;2193365;81;21140;-79
2021/04/21 10:37:23;;;;;;;8.53;7.08;;;;;;;17.06;46.20;98390.48;2187187;81;21124;-79
2021/04/21 10:40:26;;;;;;;11.53;8.70;;;;;;;16.76;46.68;98394.52;2197227;80;22240;-80
2021/04/21 10:43:27;;;;;;;5.80;5.25;;;;;;;16.42;46.30;98388.59;2193456;81;21737;-80
2021/04/21 10:46:29;;;;;;;7.25;5.25;;;;;;;16.10;46.45;98388.81;2156078;81;21160;-83
2021/04/21 10:49:31;;;;;;;6.85;5.95;;;;;;;15.88;46.22;98384.49;2166239;81;21120;-79
2021/04/21 10:52:37;;;;;;;11.83;8.33;;;;;;;15.76;46.72;98378.87;2176610;81;21120;-78
2021/04/21 10:55:39;;;;;;;6.08;5.37;;;;;;;15.72;46.70;98382.44;2176596;81;21163;-78
2021/04/21 10:58:41;;;;;;;5.22;4.55;;;;;;;15.78;47.76;98378.13;2166068;81;21136;-79
2021/04/21 11:01:43;;;;;;;5.08;4.42;;;;;;;15.86;47.62;98372.03;2160824;81;21153;-79
2021/04/21 11:04:46;;;;;;;6.83;6.12;;;;;;;15.92;47.12;98377.77;2155763;81;21207;-80
2021/04/21 11:07:48;;;;;;;28.30;17.15;;;;;;;15.99;46.96;98378.98;2178037;81;21285;-82
2021/04/21 11:10:51;;;;;;;28.60;16.93;;;;;;;15.97;46.81;98376.28;2193686;81;21294;-79
2021/04/21 11:13:54;;;;;;;45.92;26.55;;;;;;;15.89;46.96;98378.70;2191428;81;21702;-81
2021/04/21 11:31:06;;;;;;;11.45;9.00;;;;;;;15.85;47.34;98428.51;2201492;79;23043;-82
2021/04/21 11:34:18;;;;;;;;;;;;;;;;;;;;;
2021/04/21 11:37:20;;;;;;;12.05;9.00;;;;;;;14.58;51.79;98425.80;2305642;76;22607;-82
2021/04/21 11:40:25;;;;;;;8.45;7.37;;;;;;;14.19;52.46;98422.33;2290750;77;21285;-88
2021/04/21 11:43:27;;;;;;;8.93;7.20;;;;;;;14.19;52.46;98422.33;2239483;79;21304;-86
2021/04/21 11:46:31;;;;;;;7.12;6.42;;;;;;;13.95;53.73;98404.09;2247742;79;21227;-89
2021/04/21 11:49:33;;;;;;;7.75;6.70;;;;;;;13.88;54.64;98400.67;2207397;80;21750;-85
2021/04/21 11:52:36;;;;;;;6.97;6.37;;;;;;;14.20;53.82;98385.77;2230623;80;21148;-85
2021/04/21 11:55:38;;;;;;;7.45;6.65;;;;;;;14.20;53.82;98385.77;2204212;80;21301;-85
2021/04/21 11:58:41;;;;;;;7.85;6.05;;;;;;;14.65;53.87;98384.42;2228297;80;21280;-89
2021/04/21 12:01:42;;;;;;;9.43;6.58;;;;;;;14.97;52.83;98381.73;2224709;80;21146;-86
2021/04/21 12:04:46;;;;;;;9.30;7.70;;;;;;;15.24;53.11;98373.08;2209273;80;21278;-87
2021/04/21 12:07:52;;;;;;;6.78;6.08;;;;;;;15.36;52.05;98358.13;2184183;80;21075;-87
2021/04/21 12:10:54;;;;;;;9.28;7.03;;;;;;;15.45;50.90;98363.94;2198818;81;21278;-86
2021/04/21 12:13:59;;;;;;;20.43;12.28;;;;;;;15.41;50.19;98363.58;2200793;80;21147;-88
2021/04/21 12:17:01;;;;;;;10.08;7.78;;;;;;;15.42;51.40;98360.42;2197156;80;21691;-87
2021/04/21 12:20:03;;;;;;;6.85;6.25;;;;;;;15.54;51.78;98356.83;2203601;80;21662;-87
2021/04/21 12:23:05;;;;;;;8.98;6.87;;;;;;;15.67;51.43;98359.08;2209875;80;21253;-87
2021/04/21 12:26:07;;;;;;;13.62;9.60;;;;;;;15.70;50.68;98362.58;2224858;80;21131;-86
2021/04/21 12:29:11;;;;;;;16.82;10.10;;;;;;;15.68;50.06;98365.45;2225406;79;21253;-90
2021/04/21 12:32:13;;;;;;;18.60;10.05;;;;;;;15.71;50.14;98368.16;2223207;80;21713;-87
2021/04/21 12:35:15;;;;;;;15.32;10.30;;;;;;;15.74;49.98;98360.62;2193052;80;21120;-90
2021/04/21 12:38:17;;;;;;;12.40;10.20;;;;;;;15.87;50.15;98363.09;2224612;79;21255;-90
2021/04/21 12:41:19;;;;;;;12.25;8.98;;;;;;;15.99;49.70;98355.21;2272407;78;21699;-91
2021/04/21 12:44:21;;;;;;;12.03;7.90;;;;;;;15.99;49.98;98351.77;2271917;78;21268;-90
2021/04/21 12:47:23;;;;;;;9.70;8.55;;;;;;;15.94;49.37;98347.17;2272382;78;21278;-92
2021/04/21 12:50:24;;;;;;;9.70;7.45;;;;;;;15.91;49.55;98339.70;2271405;78;21164;-92
2021/04/21 12:53:26;;;;;;;8.35;7.17;;;;;;;15.87;49.91;98337.20;2271543;78;21180;-91
2021/04/21 12:56:28;;;;;;;10.08;7.47;;;;;;;15.84;49.60;98341.62;2271806;78;21284;-90
2021/04/21 12:59:30;;;;;;;7.80;6.20;;;;;;;15.82;49.64;98329.16;2271756;78;21275;-92
2021/04/21 13:02:32;;;;;;;8.00;6.65;;;;;;;15.74;47.64;98327.62;2272036;78;21140;-90
2021/04/21 13:05:33;;;;;;;7.40;5.80;;;;;;;15.70;46.55;98323.80;2271641;78;21292;-92
2021/04/21 13:08:39;;;;;;;6.45;5.60;;;;;;;15.67;46.46;98320.30;2271442;78;21117;-91
2021/04/21 13:11:44;;;;;;;8.00;5.97;;;;;;;15.66;46.96;98325.28;2270898;78;21271;-91
2021/04/21 13:14:46;;;;;;;8.13;6.20;;;;;;;15.66;48.27;98325.80;2270646;78;21145;-92
2021/04/21 13:17:48;;;;;;;5.50;5.00;;;;;;;15.66;48.51;98321.84;2270854;78;21635;-91
2021/04/21 13:20:51;;;;;;;5.95;5.03;;;;;;;15.66;47.72;98312.09;2271042;78;21637;-92
2021/04/21 13:23:59;;;;;;;11.97;9.70;;;;;;;15.67;47.70;98314.21;2270771;78;21318;-90
2021/04/21 13:27:03;;;;;;;8.93;7.17;;;;;;;15.71;48.47;98300.84;2271865;78;21255;-91
2021/04/21 13:30:06;;;;;;;6.65;5.45;;;;;;;15.74;47.74;98303.87;2271347;78;21157;-92
2021/04/21 13:33:08;;;;;;;32.33;18.27;;;;;;;15.77;47.68;98303.41;2271474;78;21140;-92
2021/04/21 13:36:15;;;;;;;37.95;19.80;;;;;;;15.80;48.10;98296.36;2184552;81;21459;-94
2021/04/21 13:39:17;;;;;;;33.18;17.80;;;;;;;15.86;47.84;98298.12;2184522;81;21287;-91
2021/04/21 13:42:19;;;;;;;17.15;10.30;;;;;;;15.86;47.11;98289.39;2271738;78;21299;-92
2021/04/21 13:45:21;;;;;;;9.48;7.70;;;;;;;15.87;47.08;98289.16;2271280;78;21758;-92
2021/04/21 13:48:24;;;;;;;8.20;6.83;;;;;;;15.89;46.41;98287.10;2271570;78;21349;-92
2021/04/21 13:51:25;;;;;;;11.88;5.90;;;;;;;15.90;46.77;98282.62;2271218;78;21271;-92
2021/04/21 13:54:27;;;;;;;16.23;8.80;;;;;;;15.96;46.40;98276.46;2271838;78;21152;-90
2021/04/21 13:57:29;;;;;;;16.50;7.00;;;;;;;16.00;46.45;98271.04;2271708;78;21278;-91
2021/04/21 14:00:31;;;;;;;17.50;10.63;;;;;;;16.04;46.26;98271.38;2271308;78;21132;-90
2021/04/21 14:03:33;;;;;;;12.78;6.90;;;;;;;16.10;45.80;98271.81;2184791;81;21302;-92
2021/04/21 14:06:35;;;;;;;7.90;6.92;;;;;;;16.24;45.77;98268.44;2271355;78;21113;-92
2021/04/21 14:09:39;;;;;;;20.43;9.05;;;;;;;16.39;45.12;98262.22;2271102;78;21583;-92
2021/04/21 14:12:40;;;;;;;7.95;6.25;;;;;;;16.55;45.44;98258.08;2270961;78;21319;-92
2021/04/21 14:15:42;;;;;;;6.37;5.87;;;;;;;16.68;44.64;98262.68;2271094;78;21346;-92
2021/04/21 14:18:44;;;;;;;7.25;6.15;;;;;;;16.83;44.45;98258.78;2271078;78;21117;-92
2021/04/21 14:21:46;;;;;;;7.45;5.45;;;;;;;17.01;44.18;98258.66;2271147;78;21723;-91
2021/04/21 14:24:48;;;;;;;12.40;7.28;;;;;;;17.21;43.58;98256.95;2271319;78;21159;-91
2021/04/21 14:27:50;;;;;;;6.80;5.95;;;;;;;17.37;43.89;98262.02;2271202;78;21287;-92
2021/04/21 14:30:52;;;;;;;11.70;7.40;;;;;;;17.41;42.59;98257.36;2271650;78;21295;-91
2021/04/21 14:33:54;;;;;;;7.95;7.05;;;;;;;17.31;42.42;98265.91;2271162;78;21267;-91